createdAt,value
2019-03-19T00:00:16.515Z,-0.10
2019-03-19T00:01:16.554Z,-0.12
2019-03-19T00:02:16.823Z,-0.12
2019-03-19T00:03:17.086Z,-0.08
2019-03-19T00:04:16.343Z,-0.08
2019-03-19T00:05:16.615Z,-0.08
2019-03-19T00:06:16.890Z,-0.22
2019-03-19T00:07:17.171Z,-0.26
2019-03-19T00:08:16.443Z,-0.28
2019-03-19T00:09:16.717Z,-0.25
2019-03-19T00:10:16.989Z,-0.25
2019-03-19T00:11:17.035Z,-0.26
2019-03-19T00:12:16.307Z,-0.21
2019-03-19T00:13:16.568Z,-0.12
2019-03-19T00:14:16.855Z,-0.03
2019-03-19T00:15:17.115Z,0.09
2019-03-19T00:16:16.389Z,0.22
2019-03-19T00:17:16.659Z,0.23
2019-03-19T00:18:16.923Z,0.19
2019-03-19T00:19:17.218Z,0.22
2019-03-19T00:20:16.515Z,0.17
2019-03-19T00:21:16.547Z,0.15
2019-03-19T00:22:16.821Z,0.09
2019-03-19T00:23:17.095Z,0.03
2019-03-19T00:24:16.358Z,-0.03
2019-03-19T00:25:16.619Z,0.03
2019-03-19T00:26:16.885Z,-0.01
2019-03-19T00:27:17.156Z,-0.05
2019-03-19T00:28:16.430Z,-0.05
2019-03-19T00:29:16.710Z,-0.04
2019-03-19T00:30:16.988Z,-0.04
2019-03-19T00:31:17.040Z,-0.04
2019-03-19T00:32:16.331Z,-0.10
2019-03-19T00:33:16.603Z,-0.26
2019-03-19T00:34:16.870Z,-0.35
2019-03-19T00:35:17.131Z,-0.47
2019-03-19T00:36:17.489Z,-0.50
2019-03-19T00:37:17.005Z,-0.60
2019-03-19T00:38:16.270Z,-0.66
2019-03-19T00:39:16.531Z,-0.66
2019-03-19T00:40:16.810Z,-0.63
2019-03-19T00:41:16.864Z,-0.70
2019-03-19T00:42:17.142Z,-0.74
2019-03-19T00:43:16.408Z,-0.87
2019-03-19T00:44:16.686Z,-0.92
2019-03-19T00:45:16.947Z,-0.97
2019-03-19T00:46:16.211Z,-0.87
2019-03-19T00:47:16.482Z,-0.88
2019-03-19T00:48:16.783Z,-0.91
2019-03-19T00:49:17.066Z,-0.94
2019-03-19T00:50:16.336Z,-0.91
2019-03-19T00:51:16.376Z,-0.95
2019-03-19T00:52:16.655Z,-0.91
2019-03-19T00:53:16.919Z,-1.00
2019-03-19T00:54:17.194Z,-0.85
2019-03-19T00:55:16.539Z,-0.91
2019-03-19T00:56:16.811Z,-0.81
2019-03-19T00:57:17.078Z,-0.81
2019-03-19T00:58:16.342Z,-0.85
2019-03-19T00:59:16.612Z,-0.84
2019-03-19T01:00:16.893Z,-0.85
2019-03-19T01:01:16.935Z,-0.84
2019-03-19T01:02:17.200Z,-0.82
2019-03-19T01:03:16.461Z,-0.76
2019-03-19T01:04:16.728Z,-0.78
2019-03-19T01:05:16.988Z,-0.82
2019-03-19T01:06:16.278Z,-0.84
2019-03-19T01:07:16.553Z,-0.74
2019-03-19T01:08:16.814Z,-0.77
2019-03-19T01:09:17.097Z,-0.81
2019-03-19T01:10:17.524Z,-0.82
2019-03-19T01:11:16.422Z,-0.88
2019-03-19T01:12:16.686Z,-0.85
2019-03-19T01:13:17.004Z,-0.85
2019-03-19T01:14:16.271Z,-0.78
2019-03-19T01:15:16.526Z,-0.81
2019-03-19T01:16:16.788Z,-0.81
2019-03-19T01:17:17.051Z,-0.80
2019-03-19T01:18:16.312Z,-0.82
2019-03-19T01:19:16.578Z,-0.80
2019-03-19T01:20:16.827Z,-0.80
2019-03-19T01:21:16.880Z,-0.80
2019-03-19T01:22:17.147Z,-0.81
2019-03-19T01:23:16.415Z,-0.78
2019-03-19T01:24:16.691Z,-0.81
2019-03-19T01:25:17.009Z,-0.85
2019-03-19T01:26:16.283Z,-0.88
2019-03-19T01:27:16.550Z,-0.91
2019-03-19T01:28:16.815Z,-0.95
2019-03-19T01:29:17.125Z,-0.95
2019-03-19T01:30:16.412Z,-0.97
2019-03-19T01:31:16.453Z,-0.95
2019-03-19T01:32:16.728Z,-0.88
2019-03-19T01:33:16.996Z,-0.88
2019-03-19T01:34:16.262Z,-1.05
2019-03-19T01:35:16.534Z,-1.15
2019-03-19T01:36:16.807Z,-1.22
2019-03-19T01:37:17.073Z,-1.24
2019-03-19T01:38:16.346Z,-1.19
2019-03-19T01:39:16.607Z,-1.24
2019-03-19T01:40:16.986Z,-1.21
2019-03-19T01:41:17.038Z,-1.21
2019-03-19T01:42:16.309Z,-1.22
2019-03-19T01:43:16.590Z,-1.26
2019-03-19T01:44:16.859Z,-1.28
2019-03-19T01:45:17.116Z,-1.29
2019-03-19T01:46:16.384Z,-1.28
2019-03-19T01:47:16.651Z,-1.24
2019-03-19T01:48:16.910Z,-1.08
2019-03-19T01:49:17.503Z,-1.09
2019-03-19T01:50:16.773Z,-1.07
2019-03-19T01:51:16.808Z,-1.11
2019-03-19T01:52:17.082Z,-1.07
2019-03-19T01:53:16.350Z,-1.15
2019-03-19T01:54:16.618Z,-1.17
2019-03-19T01:55:16.886Z,-1.21
2019-03-19T01:56:17.165Z,-1.19
2019-03-19T01:57:16.427Z,-1.22
2019-03-19T01:58:16.689Z,-1.21
2019-03-19T01:59:16.954Z,-1.18
2019-03-19T02:00:16.231Z,-1.12
2019-03-19T02:01:16.290Z,-1.32
2019-03-19T02:02:16.564Z,-1.40
2019-03-19T02:03:16.826Z,-1.36
2019-03-19T02:04:17.412Z,-1.38
2019-03-19T02:05:16.686Z,-1.38
2019-03-19T02:06:16.943Z,-1.35
2019-03-19T02:07:16.279Z,-1.28
2019-03-19T02:08:16.550Z,-1.28
2019-03-19T02:09:16.807Z,-1.26
2019-03-19T02:10:17.254Z,-1.24
2019-03-19T02:11:17.130Z,-1.24
2019-03-19T02:12:16.401Z,-1.22
2019-03-19T02:13:16.676Z,-1.09
2019-03-19T02:14:16.955Z,-1.04
2019-03-19T02:15:16.279Z,-1.00
2019-03-19T02:16:16.576Z,-0.94
2019-03-19T02:17:16.849Z,-0.87
2019-03-19T02:18:17.112Z,-0.87
2019-03-19T02:19:16.377Z,-0.84
2019-03-19T02:20:16.678Z,-0.84
2019-03-19T02:21:16.705Z,-0.85
2019-03-19T02:22:16.968Z,-0.85
2019-03-19T02:23:16.239Z,-0.82
2019-03-19T02:24:16.526Z,-0.82
2019-03-19T02:25:16.810Z,-0.78
2019-03-19T02:26:17.204Z,-0.78
2019-03-19T02:27:16.498Z,-0.82
2019-03-19T02:28:16.760Z,-0.74
2019-03-19T02:29:17.029Z,-0.73
2019-03-19T02:30:16.321Z,-0.74
2019-03-19T02:31:16.354Z,-0.71
2019-03-19T02:32:16.627Z,-0.71
2019-03-19T02:33:16.891Z,-0.71
2019-03-19T02:34:17.179Z,-0.67
2019-03-19T02:35:16.463Z,-0.69
2019-03-19T02:36:16.738Z,-0.63
2019-03-19T02:37:17.010Z,-0.60
2019-03-19T02:38:16.287Z,-0.60
2019-03-19T02:39:16.575Z,-0.60
2019-03-19T02:40:16.904Z,-0.60
2019-03-19T02:41:16.907Z,-0.57
2019-03-19T02:42:17.199Z,-0.57
2019-03-19T02:43:16.480Z,-0.56
2019-03-19T02:44:16.751Z,-0.54
2019-03-19T02:45:17.065Z,-0.57
2019-03-19T02:46:16.336Z,-0.56
2019-03-19T02:47:16.596Z,-0.59
2019-03-19T02:48:16.874Z,-0.61
2019-03-19T02:49:17.178Z,-0.67
2019-03-19T02:50:16.463Z,-0.73
2019-03-19T02:51:16.502Z,-0.70
2019-03-19T02:52:16.786Z,-0.69
2019-03-19T02:53:17.060Z,-0.70
2019-03-19T02:54:16.333Z,-0.64
2019-03-19T02:55:16.928Z,-0.64
2019-03-19T02:56:31.690Z,-0.56
2019-03-19T02:57:16.505Z,-0.50
2019-03-19T02:58:16.781Z,-0.52
2019-03-19T02:59:17.087Z,-0.46
2019-03-19T03:00:16.686Z,-0.47
2019-03-19T03:01:16.706Z,-0.49
2019-03-19T03:02:16.986Z,-0.49
2019-03-19T03:03:16.266Z,-0.53
2019-03-19T03:04:16.550Z,-0.59
2019-03-19T03:05:16.845Z,-0.67
2019-03-19T03:06:17.131Z,-0.69
2019-03-19T03:07:16.412Z,-0.69
2019-03-19T03:08:16.687Z,-0.66
2019-03-19T03:09:16.998Z,-0.70
2019-03-19T03:10:16.295Z,-0.66
2019-03-19T03:11:16.322Z,-0.71
2019-03-19T03:12:16.590Z,-0.71
2019-03-19T03:13:16.867Z,-0.69
2019-03-19T03:14:17.132Z,-0.61
2019-03-19T03:15:16.407Z,-0.59
2019-03-19T03:16:16.679Z,-0.59
2019-03-19T03:17:16.943Z,-0.63
2019-03-19T03:18:16.223Z,-0.64
2019-03-19T03:19:16.510Z,-0.67
2019-03-19T03:20:16.787Z,-0.63
2019-03-19T03:21:16.835Z,-0.57
2019-03-19T03:22:17.117Z,-0.57
2019-03-19T03:23:16.413Z,-0.50
2019-03-19T03:24:16.685Z,-0.50
2019-03-19T03:25:16.943Z,-0.52
2019-03-19T03:26:16.241Z,-0.52
2019-03-19T03:27:16.527Z,-0.50
2019-03-19T03:28:16.801Z,-0.52
2019-03-19T03:29:17.097Z,-0.50
2019-03-19T03:30:16.529Z,-0.47
2019-03-19T03:31:16.463Z,-0.50
2019-03-19T03:32:16.757Z,-0.47
2019-03-19T03:33:17.048Z,-0.46
2019-03-19T03:34:16.330Z,-0.49
2019-03-19T03:35:16.612Z,-0.57
2019-03-19T03:36:16.912Z,-0.60
2019-03-19T03:37:17.192Z,-0.61
2019-03-19T03:38:16.457Z,-0.60
2019-03-19T03:39:16.737Z,-0.57
2019-03-19T03:40:17.035Z,-0.50
2019-03-19T03:41:17.206Z,-0.52
2019-03-19T03:42:16.522Z,-0.46
2019-03-19T03:43:16.791Z,-0.46
2019-03-19T03:44:17.065Z,-0.47
2019-03-19T03:45:16.367Z,-0.46
2019-03-19T03:46:16.752Z,-0.46
2019-03-19T03:47:16.827Z,-0.46
2019-03-19T03:48:17.107Z,-0.52
2019-03-19T03:49:16.374Z,-0.42
2019-03-19T03:50:16.664Z,-0.41
2019-03-19T03:51:16.704Z,-0.35
2019-03-19T03:52:16.982Z,-0.38
2019-03-19T03:53:16.248Z,-0.39
2019-03-19T03:54:16.529Z,-0.41
2019-03-19T03:55:16.862Z,-0.45
2019-03-19T03:56:16.279Z,-0.50
2019-03-19T03:57:16.557Z,-0.52
2019-03-19T03:58:16.825Z,-0.52
2019-03-19T03:59:17.136Z,-0.54
2019-03-19T04:00:16.424Z,-0.56
2019-03-19T04:01:16.475Z,-0.56
2019-03-19T04:02:16.756Z,-0.59
2019-03-19T04:03:17.042Z,-0.59
2019-03-19T04:04:16.318Z,-0.63
2019-03-19T04:05:16.589Z,-0.70
2019-03-19T04:06:16.860Z,-0.70
2019-03-19T04:07:17.124Z,-0.73
2019-03-19T04:08:16.415Z,-0.74
2019-03-19T04:09:16.710Z,-0.76
2019-03-19T04:10:16.989Z,-0.77
2019-03-19T04:11:17.029Z,-0.82
2019-03-19T04:12:16.301Z,-0.81
2019-03-19T04:13:16.564Z,-0.81
2019-03-19T04:14:16.834Z,-0.82
2019-03-19T04:15:17.114Z,-0.84
2019-03-19T04:16:16.397Z,-0.81
2019-03-19T04:17:16.683Z,-0.82
2019-03-19T04:18:16.960Z,-0.82
2019-03-19T04:19:16.229Z,-0.85
2019-03-19T04:20:16.528Z,-0.82
2019-03-19T04:21:16.560Z,-0.92
2019-03-19T04:22:16.832Z,-0.94
2019-03-19T04:23:17.104Z,-0.97
2019-03-19T04:24:16.388Z,-0.95
2019-03-19T04:25:16.660Z,-0.92
2019-03-19T04:26:16.957Z,-0.88
2019-03-19T04:27:16.748Z,-0.85
2019-03-19T04:28:17.156Z,-0.85
2019-03-19T04:29:16.424Z,-0.87
2019-03-19T04:30:16.697Z,-0.84
2019-03-19T04:31:16.758Z,-0.82
2019-03-19T04:32:17.019Z,-0.81
2019-03-19T04:33:16.283Z,-0.76
2019-03-19T04:34:16.563Z,-0.76
2019-03-19T04:35:16.843Z,-0.74
2019-03-19T04:36:17.108Z,-0.71
2019-03-19T04:37:16.417Z,-0.69
2019-03-19T04:38:16.679Z,-0.69
2019-03-19T04:39:16.944Z,-0.64
2019-03-19T04:40:16.241Z,-0.66
2019-03-19T04:41:16.283Z,-0.64
2019-03-19T04:42:16.549Z,-0.60
2019-03-19T04:43:16.829Z,-0.63
2019-03-19T04:44:17.113Z,-0.60
2019-03-19T04:45:16.399Z,-0.61
2019-03-19T04:46:16.666Z,-0.60
2019-03-19T04:47:16.940Z,-0.63
2019-03-19T04:48:16.211Z,-0.63
2019-03-19T04:49:16.483Z,-0.63
2019-03-19T04:50:16.780Z,-0.64
2019-03-19T04:51:16.802Z,-0.66
2019-03-19T04:52:17.068Z,-0.67
2019-03-19T04:53:16.318Z,-0.69
2019-03-19T04:54:16.578Z,-0.70
2019-03-19T04:55:16.851Z,-0.66
2019-03-19T04:56:17.134Z,-0.67
2019-03-19T04:57:26.190Z,-0.67
2019-03-19T04:58:16.535Z,-0.69
2019-03-19T04:59:16.787Z,-0.69
2019-03-19T05:00:17.078Z,-0.71
2019-03-19T05:01:17.103Z,-0.73
2019-03-19T05:02:16.362Z,-0.71
2019-03-19T05:03:16.678Z,-0.71
2019-03-19T05:04:16.962Z,-0.76
2019-03-19T05:05:16.223Z,-0.74
2019-03-19T05:06:16.497Z,-0.80
2019-03-19T05:07:16.752Z,-0.77
2019-03-19T05:08:17.019Z,-0.81
2019-03-19T05:09:16.280Z,-0.85
2019-03-19T05:10:16.569Z,-0.84
2019-03-19T05:11:16.608Z,-0.87
2019-03-19T05:12:16.873Z,-0.84
2019-03-19T05:13:17.143Z,-0.87
2019-03-19T05:14:16.407Z,-0.87
2019-03-19T05:15:16.693Z,-0.90
2019-03-19T05:16:16.966Z,-0.91
2019-03-19T05:17:16.240Z,-0.94
2019-03-19T05:18:16.518Z,-0.92
2019-03-19T05:19:16.783Z,-0.92
2019-03-19T05:20:17.455Z,-0.87
2019-03-19T05:21:17.135Z,-0.77
2019-03-19T05:22:16.400Z,-0.88
2019-03-19T05:23:16.678Z,-0.85
2019-03-19T05:24:16.948Z,-0.88
2019-03-19T05:25:16.232Z,-0.92
2019-03-19T05:26:16.528Z,-1.01
2019-03-19T05:27:16.798Z,-1.04
2019-03-19T05:28:17.072Z,-1.11
2019-03-19T05:29:16.341Z,-1.14
2019-03-19T05:30:16.605Z,-1.15
2019-03-19T05:31:16.656Z,-1.17
2019-03-19T05:32:16.908Z,-1.14
2019-03-19T05:33:19.386Z,-1.15
2019-03-19T05:34:16.947Z,-1.12
2019-03-19T05:35:16.229Z,-1.12
2019-03-19T05:36:16.506Z,-1.04
2019-03-19T05:37:16.772Z,-0.98
2019-03-19T05:38:17.042Z,-0.97
2019-03-19T05:39:16.402Z,-1.01
2019-03-19T05:40:16.668Z,-0.98
2019-03-19T05:41:16.815Z,-1.00
2019-03-19T05:42:17.105Z,-0.98
2019-03-19T05:43:16.403Z,-0.97
2019-03-19T05:44:16.677Z,-0.98
2019-03-19T05:45:16.941Z,-1.00
2019-03-19T05:46:16.210Z,-1.01
2019-03-19T05:47:16.479Z,-1.02
2019-03-19T05:48:16.741Z,-1.11
2019-03-19T05:49:17.008Z,-1.14
2019-03-19T05:50:16.296Z,-1.24
2019-03-19T05:51:16.328Z,-1.28
2019-03-19T05:52:16.588Z,-1.28
2019-03-19T05:53:16.850Z,-1.36
2019-03-19T05:54:17.115Z,-1.42
2019-03-19T05:55:16.381Z,-1.45
2019-03-19T05:56:16.649Z,-1.42
2019-03-19T05:57:16.919Z,-1.33
2019-03-19T05:58:17.185Z,-1.39
2019-03-19T05:59:16.452Z,-1.43
2019-03-19T06:00:16.751Z,-1.45
2019-03-19T06:01:16.772Z,-1.45
2019-03-19T06:02:17.024Z,-1.46
2019-03-19T06:03:16.305Z,-1.45
2019-03-19T06:04:16.573Z,-1.45
2019-03-19T06:05:16.837Z,-1.43
2019-03-19T06:06:17.100Z,-1.42
2019-03-19T06:07:16.365Z,-1.38
2019-03-19T06:08:16.640Z,-1.42
2019-03-19T06:09:16.910Z,-1.40
2019-03-19T06:10:17.207Z,-1.39
2019-03-19T06:11:16.243Z,-1.38
2019-03-19T06:12:16.511Z,-1.33
2019-03-19T06:13:16.784Z,-1.26
2019-03-19T06:14:17.051Z,-1.29
2019-03-19T06:15:16.323Z,-1.28
2019-03-19T06:16:16.594Z,-1.28
2019-03-19T06:17:16.863Z,-1.28
2019-03-19T06:18:17.132Z,-1.19
2019-03-19T06:19:16.398Z,-1.14
2019-03-19T06:20:16.674Z,-1.11
2019-03-19T06:21:16.720Z,-0.98
2019-03-19T06:22:16.978Z,-0.95
2019-03-19T06:23:16.252Z,-0.92
2019-03-19T06:24:16.520Z,-0.88
2019-03-19T06:25:16.808Z,-0.90
2019-03-19T06:26:17.105Z,-0.87
2019-03-19T06:27:16.367Z,-0.84
2019-03-19T06:28:16.636Z,-0.84
2019-03-19T06:29:16.900Z,-0.87
2019-03-19T06:30:17.494Z,-0.95
2019-03-19T06:31:16.222Z,-0.91
2019-03-19T06:32:16.491Z,-0.84
2019-03-19T06:33:16.770Z,-0.82
2019-03-19T06:34:17.024Z,-0.78
2019-03-19T06:35:16.330Z,-0.74
2019-03-19T06:36:16.637Z,-0.76
2019-03-19T06:37:16.943Z,-0.71
2019-03-19T06:38:16.222Z,-0.66
2019-03-19T06:39:16.487Z,-0.59
2019-03-19T06:40:16.758Z,-0.66
2019-03-19T06:41:16.792Z,-0.63
2019-03-19T06:42:17.099Z,-0.60
2019-03-19T06:43:16.366Z,-0.64
2019-03-19T06:44:16.643Z,-0.59
2019-03-19T06:45:16.919Z,-0.54
2019-03-19T06:46:17.218Z,-0.53
2019-03-19T06:47:16.484Z,-0.39
2019-03-19T06:48:16.763Z,-0.32
2019-03-19T06:49:17.033Z,-0.25
2019-03-19T06:50:16.328Z,-0.23
2019-03-19T06:51:16.355Z,-0.19
2019-03-19T06:52:16.622Z,-0.14
2019-03-19T06:53:16.884Z,-0.08
2019-03-19T06:54:17.156Z,0.13
2019-03-19T06:55:16.421Z,0.20
2019-03-19T06:56:16.693Z,0.23
2019-03-19T06:57:16.974Z,0.24
2019-03-19T06:58:16.239Z,0.30
2019-03-19T06:59:16.510Z,0.36
2019-03-19T07:00:16.786Z,0.38
2019-03-19T07:01:17.493Z,0.41
2019-03-19T07:02:16.870Z,0.45
2019-03-19T07:03:17.182Z,0.45
2019-03-19T07:04:16.453Z,0.47
2019-03-19T07:05:16.737Z,0.47
2019-03-19T07:06:17.022Z,0.57
2019-03-19T07:07:16.287Z,0.58
2019-03-19T07:08:16.566Z,0.61
2019-03-19T07:09:16.835Z,0.64
2019-03-19T07:10:17.118Z,0.65
2019-03-19T07:11:17.500Z,0.64
2019-03-19T07:12:16.768Z,0.68
2019-03-19T07:13:17.048Z,0.68
2019-03-19T07:14:16.328Z,0.71
2019-03-19T07:15:16.599Z,0.79
2019-03-19T07:16:16.864Z,0.79
2019-03-19T07:17:17.157Z,0.85
2019-03-19T07:18:16.429Z,0.91
2019-03-19T07:19:16.699Z,0.92
2019-03-19T07:20:16.964Z,0.96
2019-03-19T07:21:17.018Z,0.96
2019-03-19T07:22:16.293Z,1.04
2019-03-19T07:23:16.571Z,1.10
2019-03-19T07:24:16.842Z,1.12
2019-03-19T07:25:17.126Z,1.19
2019-03-19T07:26:16.402Z,1.20
2019-03-19T07:27:16.660Z,1.20
2019-03-19T07:28:21.828Z,1.23
2019-03-19T07:29:16.818Z,1.26
2019-03-19T07:30:17.092Z,1.34
2019-03-19T07:31:17.591Z,1.36
2019-03-19T07:32:16.864Z,1.43
2019-03-19T07:33:17.132Z,1.43
2019-03-19T07:34:16.405Z,1.53
2019-03-19T07:35:16.676Z,1.60
2019-03-19T07:36:16.964Z,1.62
2019-03-19T07:37:16.230Z,1.61
2019-03-19T07:38:16.496Z,1.60
2019-03-19T07:39:16.759Z,1.65
2019-03-19T07:40:17.043Z,1.79
2019-03-19T07:41:17.570Z,1.90
2019-03-19T07:42:17.064Z,1.92
2019-03-19T07:43:16.337Z,1.88
2019-03-19T07:44:16.625Z,1.90
2019-03-19T07:45:16.900Z,1.90
2019-03-19T07:46:17.177Z,1.99
2019-03-19T07:47:16.439Z,1.89
2019-03-19T07:48:16.706Z,1.93
2019-03-19T07:49:16.965Z,1.95
2019-03-19T07:50:16.240Z,1.98
2019-03-19T07:51:16.311Z,2.02
2019-03-19T07:52:16.598Z,2.06
2019-03-19T07:53:16.901Z,2.09
2019-03-19T07:54:17.182Z,2.13
2019-03-19T07:55:16.448Z,2.19
2019-03-19T07:56:16.715Z,2.23
2019-03-19T07:57:16.980Z,2.24
2019-03-19T07:58:16.248Z,2.29
2019-03-19T07:59:16.510Z,2.29
2019-03-19T08:00:16.787Z,2.37
2019-03-19T08:01:16.823Z,2.44
2019-03-19T08:02:17.091Z,2.50
2019-03-19T08:03:16.575Z,2.47
2019-03-19T08:04:16.981Z,2.47
2019-03-19T08:05:16.252Z,2.51
2019-03-19T08:06:16.521Z,2.53
2019-03-19T08:07:16.788Z,2.60
2019-03-19T08:08:17.070Z,2.63
2019-03-19T08:09:16.387Z,2.60
2019-03-19T08:10:16.648Z,2.64
2019-03-19T08:11:16.904Z,2.58
2019-03-19T08:12:16.234Z,2.61
2019-03-19T08:13:16.508Z,2.61
2019-03-19T08:14:16.768Z,2.64
2019-03-19T08:15:17.039Z,2.67
2019-03-19T08:16:26.780Z,2.67
2019-03-19T08:17:17.051Z,2.75
2019-03-19T08:18:16.311Z,2.81
2019-03-19T08:19:16.577Z,2.74
2019-03-19T08:20:16.859Z,2.67
2019-03-19T08:21:16.913Z,2.72
2019-03-19T08:22:17.191Z,2.85
2019-03-19T08:23:16.454Z,2.91
2019-03-19T08:24:16.741Z,3.04
2019-03-19T08:25:17.009Z,3.03
2019-03-19T08:26:16.289Z,3.31
2019-03-19T08:27:16.547Z,3.23
2019-03-19T08:28:16.813Z,3.24
2019-03-19T08:29:17.083Z,3.44
2019-03-19T08:30:16.363Z,3.43
2019-03-19T08:31:16.492Z,3.24
2019-03-19T08:32:16.802Z,3.28
2019-03-19T08:33:17.063Z,3.28
2019-03-19T08:34:16.329Z,3.24
2019-03-19T08:35:16.591Z,3.17
2019-03-19T08:36:16.861Z,3.26
2019-03-19T08:37:17.143Z,3.28
2019-03-19T08:38:16.404Z,3.26
2019-03-19T08:39:16.669Z,3.30
2019-03-19T08:40:16.941Z,3.37
2019-03-19T08:41:17.005Z,3.40
2019-03-19T08:42:16.264Z,3.55
2019-03-19T08:43:16.530Z,3.68
2019-03-19T08:44:16.809Z,3.67
2019-03-19T08:45:17.097Z,3.54
2019-03-19T08:46:16.376Z,3.53
2019-03-19T08:47:16.642Z,3.54
2019-03-19T08:48:16.913Z,3.50
2019-03-19T08:49:17.177Z,3.53
2019-03-19T08:50:16.452Z,3.79
2019-03-19T08:51:16.500Z,3.82
2019-03-19T08:52:16.771Z,3.95
2019-03-19T08:53:17.054Z,3.98
2019-03-19T08:54:16.319Z,3.89
2019-03-19T08:55:16.587Z,4.16
2019-03-19T08:56:16.860Z,4.14
2019-03-19T08:57:17.144Z,4.06
2019-03-19T08:58:16.424Z,4.06
2019-03-19T08:59:16.694Z,4.13
2019-03-19T09:00:16.972Z,4.09
2019-03-19T09:01:17.001Z,4.14
2019-03-19T09:02:16.535Z,4.14
2019-03-19T09:03:16.811Z,4.08
2019-03-19T09:04:17.086Z,4.21
2019-03-19T09:05:16.358Z,4.05
2019-03-19T09:06:16.628Z,3.89
2019-03-19T09:07:16.886Z,3.99
2019-03-19T09:08:17.165Z,4.17
2019-03-19T09:09:16.419Z,4.16
2019-03-19T09:10:16.699Z,4.31
2019-03-19T09:11:16.739Z,4.58
2019-03-19T09:12:17.002Z,4.63
2019-03-19T09:13:16.270Z,4.36
2019-03-19T09:14:16.558Z,4.23
2019-03-19T09:15:16.829Z,4.23
2019-03-19T09:16:17.103Z,4.40
2019-03-19T09:17:16.363Z,4.55
2019-03-19T09:18:16.627Z,4.58
2019-03-19T09:19:16.905Z,4.72
2019-03-19T09:20:17.189Z,4.74
2019-03-19T09:21:16.235Z,4.76
2019-03-19T09:22:16.518Z,4.84
2019-03-19T09:23:16.783Z,4.74
2019-03-19T09:24:17.040Z,4.61
2019-03-19T09:25:16.306Z,4.54
2019-03-19T09:26:16.586Z,4.53
2019-03-19T09:27:16.856Z,4.47
2019-03-19T09:28:17.145Z,4.65
2019-03-19T09:29:17.231Z,4.69
2019-03-19T09:30:16.748Z,4.68
2019-03-19T09:31:16.784Z,4.69
2019-03-19T09:32:17.103Z,4.72
2019-03-19T09:33:16.367Z,4.68
2019-03-19T09:34:16.640Z,4.71
2019-03-19T09:35:16.897Z,4.76
2019-03-19T09:36:17.166Z,4.84
2019-03-19T09:37:16.434Z,4.93
2019-03-19T09:38:16.702Z,5.07
2019-03-19T09:39:16.981Z,5.22
2019-03-19T09:40:16.262Z,5.51
2019-03-19T09:41:16.316Z,5.27
2019-03-19T09:42:16.580Z,5.12
2019-03-19T09:43:16.848Z,5.07
2019-03-19T09:44:17.122Z,5.20
2019-03-19T09:45:16.391Z,5.09
2019-03-19T09:46:18.507Z,5.23
2019-03-19T09:47:16.915Z,5.17
2019-03-19T09:48:17.199Z,5.31
2019-03-19T09:49:16.469Z,5.47
2019-03-19T09:50:16.754Z,5.54
2019-03-19T09:51:16.796Z,5.44
2019-03-19T09:52:17.060Z,5.40
2019-03-19T09:53:18.552Z,5.34
2019-03-19T09:54:17.193Z,5.40
2019-03-19T09:55:16.480Z,5.40
2019-03-19T09:56:16.733Z,5.40
2019-03-19T09:57:17.002Z,5.40
2019-03-19T09:58:16.267Z,5.33
2019-03-19T09:59:26.535Z,5.51
2019-03-19T10:00:16.701Z,5.28
2019-03-19T10:01:16.751Z,5.26
2019-03-19T10:02:17.023Z,5.35
2019-03-19T10:03:16.283Z,5.34
2019-03-19T10:04:16.557Z,5.65
2019-03-19T10:05:16.816Z,5.75
2019-03-19T10:06:17.079Z,5.72
2019-03-19T10:07:16.349Z,5.70
2019-03-19T10:08:16.610Z,5.72
2019-03-19T10:09:16.901Z,6.14
2019-03-19T10:10:17.183Z,5.99
2019-03-19T10:11:16.238Z,6.10
2019-03-19T10:12:16.506Z,5.96
2019-03-19T10:13:16.784Z,6.06
2019-03-19T10:14:17.068Z,5.82
2019-03-19T10:15:16.350Z,5.82
2019-03-19T10:16:16.619Z,5.88
2019-03-19T10:17:16.881Z,5.71
2019-03-19T10:18:17.171Z,5.58
2019-03-19T10:19:16.432Z,5.51
2019-03-19T10:20:17.787Z,5.58
2019-03-19T10:21:16.768Z,5.52
2019-03-19T10:22:17.041Z,5.37
2019-03-19T10:23:16.315Z,5.45
2019-03-19T10:24:16.585Z,5.47
2019-03-19T10:25:16.859Z,5.48
2019-03-19T10:26:17.134Z,5.50
2019-03-19T10:27:16.401Z,5.48
2019-03-19T10:28:16.678Z,5.50
2019-03-19T10:29:16.942Z,5.71
2019-03-19T10:30:16.204Z,5.74
2019-03-19T10:31:16.245Z,5.91
2019-03-19T10:32:16.509Z,5.84
2019-03-19T10:33:16.768Z,6.12
2019-03-19T10:34:17.035Z,6.29
2019-03-19T10:35:16.297Z,6.05
2019-03-19T10:36:16.562Z,6.02
2019-03-19T10:37:16.845Z,6.24
2019-03-19T10:38:17.117Z,6.24
2019-03-19T10:39:16.403Z,6.40
2019-03-19T10:40:16.687Z,6.30
2019-03-19T10:41:16.737Z,6.36
2019-03-19T10:42:17.000Z,6.44
2019-03-19T10:43:16.271Z,6.41
2019-03-19T10:44:16.544Z,6.12
2019-03-19T10:45:16.826Z,6.00
2019-03-19T10:46:17.107Z,5.95
2019-03-19T10:47:16.374Z,5.84
2019-03-19T10:48:16.635Z,5.70
2019-03-19T10:49:16.905Z,5.67
2019-03-19T10:50:17.222Z,5.64
2019-03-19T10:51:16.258Z,5.74
2019-03-19T10:52:16.516Z,5.93
2019-03-19T10:53:16.771Z,5.86
2019-03-19T10:54:17.039Z,6.00
2019-03-19T10:55:16.309Z,6.13
2019-03-19T10:56:16.590Z,6.09
2019-03-19T10:57:16.852Z,5.98
2019-03-19T10:58:17.128Z,6.13
2019-03-19T10:59:16.400Z,6.29
2019-03-19T11:00:16.678Z,6.47
2019-03-19T11:01:16.713Z,6.40
2019-03-19T11:02:16.984Z,6.40
2019-03-19T11:03:16.246Z,6.44
2019-03-19T11:04:16.536Z,6.57
2019-03-19T11:05:16.810Z,6.36
2019-03-19T11:06:17.086Z,6.40
2019-03-19T11:07:16.355Z,6.49
2019-03-19T11:08:16.624Z,6.63
2019-03-19T11:09:16.889Z,6.72
2019-03-19T11:10:17.194Z,6.69
2019-03-19T11:11:16.215Z,6.72
2019-03-19T11:12:16.480Z,6.38
2019-03-19T11:13:16.751Z,6.44
2019-03-19T11:14:17.038Z,6.37
2019-03-19T11:15:16.311Z,6.37
2019-03-19T11:16:16.588Z,6.40
2019-03-19T11:17:16.851Z,6.33
2019-03-19T11:18:17.119Z,6.16
2019-03-19T11:19:16.376Z,6.02
2019-03-19T11:20:16.665Z,6.02
2019-03-19T11:21:16.695Z,5.93
2019-03-19T11:22:16.967Z,6.08
2019-03-19T11:23:16.233Z,6.12
2019-03-19T11:24:16.504Z,6.24
2019-03-19T11:25:16.801Z,6.23
2019-03-19T11:26:17.062Z,6.31
2019-03-19T11:27:16.336Z,6.34
2019-03-19T11:28:16.619Z,6.33
2019-03-19T11:29:16.891Z,6.41
2019-03-19T11:30:17.163Z,6.45
2019-03-19T11:31:16.223Z,6.64
2019-03-19T11:32:16.486Z,6.78
2019-03-19T11:33:16.758Z,7.03
2019-03-19T11:34:17.017Z,6.95
2019-03-19T11:35:16.313Z,6.89
2019-03-19T11:36:16.588Z,7.13
2019-03-19T11:37:16.857Z,7.27
2019-03-19T11:38:17.125Z,7.16
2019-03-19T11:39:16.392Z,6.95
2019-03-19T11:40:16.660Z,7.09
2019-03-19T11:41:16.960Z,7.20
2019-03-19T11:42:16.223Z,7.31
2019-03-19T11:43:16.499Z,7.41
2019-03-19T11:44:16.759Z,7.27
2019-03-19T11:45:17.036Z,7.19
2019-03-19T11:46:16.304Z,6.82
2019-03-19T11:47:16.580Z,6.99
2019-03-19T11:48:16.853Z,7.12
2019-03-19T11:49:17.138Z,7.12
2019-03-19T11:50:16.420Z,6.68
2019-03-19T11:51:16.479Z,6.47
2019-03-19T11:52:16.742Z,6.49
2019-03-19T11:53:17.001Z,6.64
2019-03-19T11:54:16.269Z,6.76
2019-03-19T11:55:16.530Z,6.82
2019-03-19T11:56:16.787Z,6.82
2019-03-19T11:57:17.047Z,6.81
2019-03-19T11:58:16.363Z,6.92
2019-03-19T11:59:16.619Z,6.76
2019-03-19T12:00:16.903Z,6.78
2019-03-19T12:01:16.924Z,6.98
2019-03-19T12:02:25.506Z,6.98
2019-03-19T12:03:16.807Z,7.26
2019-03-19T12:04:17.107Z,7.34
2019-03-19T12:05:16.377Z,7.40
2019-03-19T12:06:16.640Z,7.59
2019-03-19T12:07:16.903Z,7.72
2019-03-19T12:08:17.168Z,7.51
2019-03-19T12:09:16.435Z,7.41
2019-03-19T12:10:16.717Z,7.48
2019-03-19T12:11:16.763Z,7.71
2019-03-19T12:12:17.018Z,7.51
2019-03-19T12:13:16.287Z,7.20
2019-03-19T12:14:16.559Z,6.96
2019-03-19T12:15:16.839Z,6.96
2019-03-19T12:16:17.122Z,7.13
2019-03-19T12:17:16.390Z,7.06
2019-03-19T12:18:16.667Z,7.06
2019-03-19T12:19:16.933Z,7.02
2019-03-19T12:20:17.209Z,7.00
2019-03-19T12:21:16.268Z,6.94
2019-03-19T12:22:16.545Z,6.98
2019-03-19T12:23:16.821Z,6.88
2019-03-19T12:24:17.107Z,6.75
2019-03-19T12:25:16.374Z,6.61
2019-03-19T12:26:16.637Z,6.69
2019-03-19T12:27:16.903Z,6.74
2019-03-19T12:28:17.182Z,6.81
2019-03-19T12:29:16.451Z,6.71
2019-03-19T12:30:21.944Z,6.71
2019-03-19T12:31:16.795Z,6.81
2019-03-19T12:32:17.073Z,6.72
2019-03-19T12:33:16.338Z,6.82
2019-03-19T12:34:16.601Z,6.92
2019-03-19T12:35:16.865Z,6.94
2019-03-19T12:36:17.127Z,7.03
2019-03-19T12:37:16.389Z,6.94
2019-03-19T12:38:16.659Z,6.89
2019-03-19T12:39:16.932Z,6.65
2019-03-19T12:40:17.225Z,6.68
2019-03-19T12:41:16.342Z,6.59
2019-03-19T12:42:16.605Z,6.74
2019-03-19T12:43:16.868Z,6.82
2019-03-19T12:44:17.139Z,6.75
2019-03-19T12:45:16.432Z,6.76
2019-03-19T12:46:16.704Z,6.85
2019-03-19T12:47:16.966Z,7.10
2019-03-19T12:48:16.233Z,7.22
2019-03-19T12:49:16.518Z,7.24
2019-03-19T12:50:16.808Z,7.31
2019-03-19T12:51:16.838Z,6.84
2019-03-19T12:52:17.095Z,6.85
2019-03-19T12:53:16.374Z,6.79
2019-03-19T12:54:16.641Z,6.58
2019-03-19T12:55:16.910Z,6.74
2019-03-19T12:56:17.169Z,6.79
2019-03-19T12:57:16.459Z,6.86
2019-03-19T12:58:16.736Z,6.96
2019-03-19T12:59:20.357Z,7.07
2019-03-19T13:00:17.021Z,6.96
2019-03-19T13:01:17.071Z,7.00
2019-03-19T13:02:16.403Z,7.02
2019-03-19T13:03:16.675Z,7.06
2019-03-19T13:04:16.934Z,6.94
2019-03-19T13:05:17.225Z,6.96